地図

経路データ

SID SEASON NUMBER BASIN SUBBASIN NAME ISO_TIME NATURE LAT LON WMO_WIND WMO_PRES WMO_AGENCY TRACK_TYPE DIST2LAND LANDFALL IFLAG USA_AGENCY USA_ATCF_ID USA_LAT USA_LON USA_RECORD USA_STATUS USA_WIND USA_PRES USA_SSHS USA_R34_NE USA_R34_SE USA_R34_SW USA_R34_NW USA_R50_NE USA_R50_SE USA_R50_SW USA_R50_NW USA_R64_NE USA_R64_SE USA_R64_SW USA_R64_NW USA_POCI USA_ROCI USA_RMW USA_EYE TOKYO_LAT TOKYO_LON TOKYO_GRADE TOKYO_WIND TOKYO_PRES TOKYO_R50_DIR TOKYO_R50_LONG TOKYO_R50_SHORT TOKYO_R30_DIR TOKYO_R30_LONG TOKYO_R30_SHORT TOKYO_LAND CMA_LAT CMA_LON CMA_CAT CMA_WIND CMA_PRES HKO_LAT HKO_LON HKO_CAT HKO_WIND HKO_PRES NEWDELHI_LAT NEWDELHI_LON NEWDELHI_GRADE NEWDELHI_WIND NEWDELHI_PRES NEWDELHI_CI NEWDELHI_DP NEWDELHI_POCI REUNION_LAT REUNION_LON REUNION_TYPE REUNION_WIND REUNION_PRES REUNION_TNUM REUNION_CI REUNION_RMW REUNION_R34_NE REUNION_R34_SE REUNION_R34_SW REUNION_R34_NW REUNION_R50_NE REUNION_R50_SE REUNION_R50_SW REUNION_R50_NW REUNION_R64_NE REUNION_R64_SE REUNION_R64_SW REUNION_R64_NW BOM_LAT BOM_LON BOM_TYPE BOM_WIND BOM_PRES BOM_TNUM BOM_CI BOM_RMW BOM_R34_NE BOM_R34_SE BOM_R34_SW BOM_R34_NW BOM_R50_NE BOM_R50_SE BOM_R50_SW BOM_R50_NW BOM_R64_NE BOM_R64_SE BOM_R64_SW BOM_R64_NW BOM_ROCI BOM_POCI BOM_EYE BOM_POS_METHOD BOM_PRES_METHOD NADI_LAT NADI_LON NADI_CAT NADI_WIND NADI_PRES WELLINGTON_LAT WELLINGTON_LON WELLINGTON_WIND WELLINGTON_PRES DS824_LAT DS824_LON DS824_STAGE DS824_WIND DS824_PRES TD9636_LAT TD9636_LON TD9636_STAGE TD9636_WIND TD9636_PRES TD9635_LAT TD9635_LON TD9635_WIND TD9635_PRES TD9635_ROCI NEUMANN_LAT NEUMANN_LON NEUMANN_CLASS NEUMANN_WIND NEUMANN_PRES MLC_LAT MLC_LON MLC_CLASS MLC_WIND MLC_PRES USA_GUST BOM_GUST BOM_GUST_PER REUNION_GUST REUNION_GUST_PER USA_SEAHGT USA_SEARAD_NE USA_SEARAD_SE USA_SEARAD_SW USA_SEARAD_NW STORM_SPEED STORM_DIR
1897335S12059 1898 45 SI MM NOT_NAMED 1897-12-01 06:00:00 NR -12.2000 59.0000 reunion main 894 894 _____O________ -1 -12.2000 59.0000 99 9.90000 1 6
1897335S12059 1898 45 SI MM NOT_NAMED 1897-12-01 09:00:00 NR -12.1319 59.0076 main 906 906 _____P________ -1 -12.1319 59.0076 99 1 0
1897335S12059 1898 45 SI MM NOT_NAMED 1897-12-01 12:00:00 NR -12.0798 59.0132 main 906 906 _____P________ -1 -12.0798 59.0132 99 1 0
1897335S12059 1898 45 SI MM NOT_NAMED 1897-12-01 15:00:00 NR -12.0597 59.0151 main 906 906 _____P________ -1 -12.0597 59.0151 99 0 0
1897335S12059 1898 45 SI MM NOT_NAMED 1897-12-01 18:00:00 NR -12.0876 59.0112 main 906 894 _____P________ -1 -12.0876 59.0112 99 1 0
1897335S12059 1898 45 SI MM NOT_NAMED 1897-12-01 21:00:00 NR -12.1796 58.9997 main 894 883 _____P________ -1 -12.1796 58.9997 99 3 190
1897335S12059 1898 45 SI MM NOT_NAMED 1897-12-02 00:00:00 NR -12.3516 58.9786 main 872 849 _____P________ -1 -12.3516 58.9786 99 4 188
1897335S12059 1898 45 SI MM NOT_NAMED 1897-12-02 03:00:00 NR -12.6197 58.9461 main 849 804 _____P________ -1 -12.6197 58.9461 99 7 187
1897335S12059 1898 45 SI MM NOT_NAMED 1897-12-02 06:00:00 NR -13.0000 58.9000 reunion main 804 747 _____O________ -1 -13.0000 58.9000 99 9.90000 9 187
1897335S12059 1898 45 SI MM NOT_NAMED 1897-12-02 09:00:00 NR -13.5022 58.8391 main 747 681 _____P________ -1 -13.5022 58.8391 99 11 187
1897335S12059 1898 45 SI MM NOT_NAMED 1897-12-02 12:00:00 NR -14.1100 58.7653 main 681 602 _____P________ -1 -14.1100 58.7653 99 13 187
1897335S12059 1898 45 SI MM NOT_NAMED 1897-12-02 15:00:00 NR -14.8007 58.6811 main 602 523 _____P________ -1 -14.8007 58.6811 99 15 187
1897335S12059 1898 45 SI MM NOT_NAMED 1897-12-02 18:00:00 NR -15.5516 58.5893 main 512 433 _____P________ -1 -15.5516 58.5893 99 16 187
1897335S12059 1898 45 SI MM NOT_NAMED 1897-12-02 21:00:00 NR -16.3397 58.4924 main 433 343 _____P________ -1 -16.3397 58.4924 99 16 187
1897335S12059 1898 45 SI MM NOT_NAMED 1897-12-03 00:00:00 NR -17.1422 58.3933 main 343 254 _____P________ -1 -17.1422 58.3933 99 16 187
1897335S12059 1898 45 SI MM NOT_NAMED 1897-12-03 03:00:00 NR -17.9365 58.2949 main 254 165 _____P________ -1 -17.9365 58.2949 99 16 187
1897335S12059 1898 45 SI MM NOT_NAMED 1897-12-03 06:00:00 NR -18.7000 58.2000 reunion main 165 88 _____O________ -1 -18.7000 58.2000 99 9.90000 15 187
1897335S12059 1898 45 SI MM NOT_NAMED 1897-12-03 09:00:00 NR -19.4099 58.1130 main 88 30 _____P________ -1 -19.4099 58.1130 99 14 187
1897335S12059 1898 45 SI MM NOT_NAMED 1897-12-03 12:00:00 NR -20.1095 58.0272 main 30 20 _____P________ -1 -20.1095 58.0272 99 14 187
1897335S12059 1898 45 SI MM NOT_NAMED 1897-12-03 15:00:00 NR -20.7883 57.9438 main 39 39 _____P________ -1 -20.7883 57.9438 99 13 187
1897335S12059 1898 45 SI MM NOT_NAMED 1897-12-03 18:00:00 NR -21.4358 57.8637 main 102 102 _____P________ -1 -21.4358 57.8637 99 13 186
1897335S12059 1898 45 SI MM NOT_NAMED 1897-12-03 21:00:00 NR -22.0413 57.7880 main 168 168 _____P________ -1 -22.0413 57.7880 99 12 187
1897335S12059 1898 45 SI MM NOT_NAMED 1897-12-04 00:00:00 NR -22.5943 57.7181 main 234 234 _____P________ -1 -22.5943 57.7181 99 11 187
1897335S12059 1898 45 SI MM NOT_NAMED 1897-12-04 03:00:00 NR -23.0841 57.6550 main 280 273 _____P________ -1 -23.0841 57.6550 99 9 187
1897335S12059 1898 45 SI MM NOT_NAMED 1897-12-04 06:00:00 NR -23.5000 57.6000 reunion main 307 307 _____O________ -1 -23.5000 57.6000 99 9.90000 8 187
1897335S12059 1898 45 SI MM NOT_NAMED 1897-12-04 09:00:00 NR -23.8348 57.5540 main 335 335 _____P________ -1 -23.8348 57.5540 99 6 188
1897335S12059 1898 45 SI MM NOT_NAMED 1897-12-04 12:00:00 NR -24.0957 57.5163 main 358 358 _____P________ -1 -24.0957 57.5163 99 5 187
1897335S12059 1898 45 SI MM NOT_NAMED 1897-12-04 15:00:00 NR -24.2932 57.4858 main 377 377 _____P________ -1 -24.2932 57.4858 99 3 190
1897335S12059 1898 45 SI MM NOT_NAMED 1897-12-04 18:00:00 NR -24.4379 57.4613 main 387 387 _____P________ -1 -24.4379 57.4613 99 3 189
1897335S12059 1898 45 SI MM NOT_NAMED 1897-12-04 21:00:00 NR -24.5404 57.4417 main 392 392 _____P________ -1 -24.5404 57.4417 99 2 192
1897335S12059 1898 45 SI MM NOT_NAMED 1897-12-05 00:00:00 NR -24.6112 57.4258 main 402 402 _____P________ -1 -24.6112 57.4258 99 1 0
1897335S12059 1898 45 SI MM NOT_NAMED 1897-12-05 03:00:00 NR -24.6609 57.4123 main 412 412 _____P________ -1 -24.6609 57.4123 99 1 0
1897335S12059 1898 45 SI MM NOT_NAMED 1897-12-05 06:00:00 NR -24.7000 57.4000 reunion main 412 _____O________ -1 -24.7000 57.4000 99 9.90000 1 188

IBTrACS Databaseについて

本データベースは、米国NOAAが公開する1842年以降の世界の熱帯低気圧のベストトラックデータアーカイブInternational Best Track Archive for Climate Stewardship (IBTrACS)を、ウェブで閲覧しやすい形式に変換したものです。

最終更新日:2021-10-08